createdAt,value
2019-03-30T00:02:10.045Z,97.30
2019-03-30T00:04:40.611Z,97.40
2019-03-30T00:07:11.056Z,97.50
2019-03-30T00:09:41.448Z,97.50
2019-03-30T00:12:12.026Z,97.50
2019-03-30T00:14:42.696Z,97.60
2019-03-30T00:17:13.114Z,97.60
2019-03-30T00:19:43.490Z,97.70
2019-03-30T00:22:13.971Z,97.70
2019-03-30T00:24:44.452Z,97.80
2019-03-30T00:30:59.785Z,97.90
2019-03-30T00:33:30.298Z,97.80
2019-03-30T00:36:00.786Z,97.70
2019-03-30T00:38:31.458Z,97.70
2019-03-30T00:41:02.358Z,97.80
2019-03-30T00:43:32.785Z,97.90
2019-03-30T00:46:03.165Z,97.90
2019-03-30T00:48:33.589Z,98.10
2019-03-30T00:51:04.029Z,98.20
2019-03-30T00:53:34.529Z,98.30
2019-03-30T00:56:04.856Z,98.30
2019-03-30T01:02:07.941Z,98.40
2019-03-30T01:04:38.457Z,98.40
2019-03-30T01:07:08.911Z,98.30
2019-03-30T01:09:39.396Z,98.40
2019-03-30T01:12:10.779Z,98.50
2019-03-30T01:14:41.191Z,98.50
2019-03-30T01:17:11.621Z,98.60
2019-03-30T01:19:41.909Z,98.60
2019-03-30T01:22:12.469Z,98.60
2019-03-30T01:24:43.096Z,98.70
2019-03-30T01:34:30.558Z,98.70
2019-03-30T01:37:01.047Z,98.60
2019-03-30T01:39:31.406Z,98.50
2019-03-30T01:42:01.699Z,98.60
2019-03-30T01:44:32.050Z,98.60
2019-03-30T01:47:02.387Z,98.60
2019-03-30T01:49:32.819Z,98.70
2019-03-30T01:52:03.254Z,98.80
2019-03-30T01:54:33.794Z,99.10
2019-03-30T01:57:04.419Z,98.90
2019-03-30T01:59:34.987Z,99.00
2019-03-30T02:02:05.620Z,99.00
2019-03-30T02:04:36.146Z,99.00
2019-03-30T02:07:06.587Z,99.00
2019-03-30T02:09:37.081Z,99.10
2019-03-30T02:12:07.621Z,99.10
2019-03-30T02:14:38.173Z,99.10
2019-03-30T02:17:08.669Z,99.20
2019-03-30T02:19:39.175Z,99.30
2019-03-30T02:22:09.685Z,99.30
2019-03-30T02:24:40.243Z,99.20
2019-03-30T02:27:10.784Z,99.20
2019-03-30T02:29:41.187Z,99.20
2019-03-30T02:32:11.637Z,99.20
2019-03-30T02:34:42.170Z,99.30
2019-03-30T02:37:12.714Z,99.30
2019-03-30T02:39:43.263Z,99.40
2019-03-30T02:42:13.778Z,99.40
2019-03-30T02:44:44.182Z,99.50
2019-03-30T02:47:14.644Z,99.50
2019-03-30T02:49:44.910Z,99.50
2019-03-30T02:52:15.392Z,99.50
2019-03-30T02:54:45.958Z,99.50
2019-03-30T02:57:18.457Z,99.60
2019-03-30T02:59:48.808Z,99.60
2019-03-30T03:02:19.208Z,99.60
2019-03-30T03:04:49.558Z,99.90
2019-03-30T03:07:20.004Z,99.70
2019-03-30T03:09:50.433Z,99.70
2019-03-30T03:12:21.102Z,99.70
2019-03-30T03:14:51.579Z,99.70
2019-03-30T03:17:21.976Z,99.70
2019-03-30T03:19:52.443Z,99.70
2019-03-30T03:22:23.039Z,99.70
2019-03-30T03:24:53.606Z,99.90
2019-03-30T03:27:24.164Z,99.80
2019-03-30T03:29:54.611Z,99.80
2019-03-30T03:32:25.175Z,99.90
2019-03-30T03:34:56.026Z,99.80
2019-03-30T03:37:43.285Z,99.80
2019-03-30T03:39:58.549Z,99.80
2019-03-30T03:42:29.169Z,99.80
2019-03-30T03:45:01.504Z,99.80
2019-03-30T03:47:31.972Z,99.90
2019-03-30T03:50:02.301Z,99.90
2019-03-30T03:52:32.743Z,99.90
2019-03-30T03:55:04.291Z,99.90
2019-03-30T03:57:39.060Z,99.90
2019-03-30T04:00:11.569Z,99.90
2019-03-30T04:02:45.201Z,99.90
2019-03-30T04:05:15.609Z,99.90
2019-03-30T04:07:47.754Z,99.90
2019-03-30T04:10:18.854Z,99.90
2019-03-30T04:12:50.872Z,99.90
2019-03-30T04:15:27.530Z,99.90
2019-03-30T04:17:57.882Z,99.90
2019-03-30T04:20:28.401Z,99.90
2019-03-30T04:22:59.328Z,99.90
2019-03-30T04:25:29.709Z,99.90
2019-03-30T04:28:00.038Z,99.90
2019-03-30T04:30:30.570Z,99.90
2019-03-30T04:33:01.014Z,99.90
2019-03-30T04:35:31.495Z,99.90
2019-03-30T04:38:02.035Z,99.90
2019-03-30T04:40:32.390Z,99.90
2019-03-30T04:43:02.862Z,99.90
2019-03-30T04:45:33.257Z,99.90
2019-03-30T04:48:03.601Z,99.90
2019-03-30T04:50:34.135Z,99.90
2019-03-30T04:53:04.580Z,99.90
2019-03-30T04:55:35.045Z,99.90
2019-03-30T04:58:08.907Z,99.90
2019-03-30T05:00:37.584Z,99.90
2019-03-30T05:03:08.114Z,99.90
2019-03-30T05:05:38.570Z,99.90
2019-03-30T05:08:08.997Z,99.90
2019-03-30T05:10:39.391Z,99.90
2019-03-30T05:13:09.855Z,99.90
2019-03-30T05:15:40.473Z,99.90
2019-03-30T05:18:10.967Z,99.90
2019-03-30T05:20:41.280Z,99.90
2019-03-30T05:23:11.603Z,99.90
2019-03-30T05:25:42.003Z,99.90
2019-03-30T05:28:12.400Z,99.90
2019-03-30T05:30:42.807Z,99.90
2019-03-30T05:33:14.501Z,99.90
2019-03-30T05:35:48.689Z,99.90
2019-03-30T05:38:19.215Z,99.90
2019-03-30T05:40:50.331Z,99.90
2019-03-30T05:43:20.878Z,99.90
2019-03-30T05:45:51.328Z,99.90
2019-03-30T05:48:21.655Z,99.90
2019-03-30T05:50:52.160Z,99.90
2019-03-30T05:53:22.499Z,99.90
2019-03-30T05:55:52.843Z,99.90
2019-03-30T05:58:32.234Z,99.90
2019-03-30T06:01:02.707Z,99.90
2019-03-30T06:03:33.245Z,99.90
2019-03-30T06:06:03.754Z,99.90
2019-03-30T06:08:34.282Z,99.90
2019-03-30T06:11:04.864Z,99.90
2019-03-30T06:13:35.265Z,99.90
2019-03-30T06:16:05.798Z,99.90
2019-03-30T06:18:36.419Z,99.90
2019-03-30T06:21:06.949Z,99.90
2019-03-30T06:23:37.478Z,99.90
2019-03-30T06:26:08.201Z,99.90
2019-03-30T06:28:38.709Z,99.90
2019-03-30T06:31:09.243Z,99.90
2019-03-30T06:33:39.828Z,99.90
2019-03-30T06:36:10.244Z,99.80
2019-03-30T06:38:40.807Z,99.80
2019-03-30T06:41:11.211Z,99.70
2019-03-30T06:43:41.495Z,99.70
2019-03-30T06:46:18.131Z,99.60
2019-03-30T06:48:53.070Z,99.50
2019-03-30T06:51:23.689Z,99.50
2019-03-30T06:53:54.201Z,99.50
2019-03-30T06:56:24.739Z,99.40
2019-03-30T07:02:03.630Z,99.00
2019-03-30T07:04:34.005Z,98.90
2019-03-30T07:07:04.884Z,98.60
2019-03-30T07:09:37.953Z,98.40
2019-03-30T07:12:09.205Z,98.20
2019-03-30T07:18:13.446Z,98.00
2019-03-30T07:20:44.938Z,97.90
2019-03-30T07:23:21.283Z,97.90
2019-03-30T07:25:56.057Z,97.90
2019-03-30T07:28:27.434Z,97.90
2019-03-30T07:30:59.370Z,97.80
2019-03-30T07:33:30.746Z,97.60
2019-03-30T07:36:02.195Z,97.50
2019-03-30T07:38:51.987Z,97.30
2019-03-30T07:41:22.913Z,97.10
2019-03-30T07:43:53.430Z,97.00
2019-03-30T07:46:23.884Z,97.00
2019-03-30T07:48:54.288Z,97.00
2019-03-30T07:51:24.698Z,97.10
2019-03-30T07:53:55.130Z,96.90
2019-03-30T07:56:25.558Z,96.80
2019-03-30T07:58:56.166Z,96.70
2019-03-30T08:01:26.682Z,96.60
2019-03-30T08:03:57.162Z,96.50
2019-03-30T08:06:27.666Z,96.30
2019-03-30T08:08:58.316Z,96.10
2019-03-30T08:11:28.704Z,96.10
2019-03-30T08:13:59.232Z,96.00
2019-03-30T08:16:29.964Z,95.90
2019-03-30T08:19:00.581Z,95.70
2019-03-30T08:21:31.166Z,95.50
2019-03-30T08:24:02.127Z,95.40
2019-03-30T08:26:35.517Z,95.60
2019-03-30T08:29:04.742Z,95.10
2019-03-30T08:31:35.112Z,94.70
2019-03-30T08:34:05.932Z,95.10
2019-03-30T08:36:36.458Z,95.00
2019-03-30T08:39:08.121Z,94.80
2019-03-30T08:41:38.697Z,94.40
2019-03-30T08:44:09.125Z,94.10
2019-03-30T08:46:39.660Z,93.80
2019-03-30T08:49:10.082Z,93.80
2019-03-30T08:51:41.847Z,92.90
2019-03-30T08:54:12.336Z,92.50
2019-03-30T08:56:42.779Z,92.20
2019-03-30T08:59:13.454Z,92.00
2019-03-30T09:01:43.876Z,92.20
2019-03-30T09:04:14.398Z,92.10
2019-03-30T09:06:44.814Z,91.80
2019-03-30T09:09:15.329Z,91.60
2019-03-30T09:11:45.775Z,91.30
2019-03-30T09:17:48.624Z,90.90
2019-03-30T09:20:19.133Z,90.70
2019-03-30T09:22:49.596Z,90.60
2019-03-30T09:25:19.962Z,90.30
2019-03-30T09:27:50.336Z,89.40
2019-03-30T09:30:20.790Z,89.10
2019-03-30T09:32:51.286Z,88.90
2019-03-30T09:35:21.624Z,88.60
2019-03-30T09:37:52.277Z,88.30
2019-03-30T09:40:22.833Z,87.90
2019-03-30T09:42:53.395Z,88.50
2019-03-30T09:45:23.973Z,89.10
2019-03-30T09:47:55.867Z,89.40
2019-03-30T09:50:26.393Z,88.80
2019-03-30T09:52:57.715Z,87.80
2019-03-30T09:55:28.337Z,87.40
2019-03-30T09:57:58.962Z,87.00
2019-03-30T10:00:29.565Z,85.90
2019-03-30T10:02:59.892Z,86.30
2019-03-30T10:05:30.326Z,85.70
2019-03-30T10:08:00.768Z,85.40
2019-03-30T10:10:34.067Z,84.60
2019-03-30T10:17:26.984Z,83.80
2019-03-30T10:20:04.303Z,82.90
2019-03-30T10:22:29.646Z,83.00
2019-03-30T10:25:00.285Z,83.30
2019-03-30T10:27:30.755Z,82.10
2019-03-30T10:37:06.216Z,79.90
2019-03-30T10:39:36.751Z,79.40
2019-03-30T10:42:07.059Z,78.40
2019-03-30T10:44:37.593Z,77.80
2019-03-30T10:47:08.070Z,77.00
2019-03-30T10:49:38.537Z,75.90
2019-03-30T10:52:08.945Z,75.40
2019-03-30T10:54:52.093Z,74.70
2019-03-30T10:57:11.610Z,73.70
2019-03-30T10:59:42.145Z,73.10
2019-03-30T11:02:13.199Z,73.00
2019-03-30T11:04:43.721Z,72.40
2019-03-30T11:07:14.175Z,71.60
2019-03-30T11:09:44.613Z,71.80
2019-03-30T11:12:15.071Z,71.50
2019-03-30T11:14:45.467Z,71.90
2019-03-30T11:17:19.240Z,71.60
2019-03-30T11:19:48.077Z,70.90
2019-03-30T11:22:18.632Z,69.50
2019-03-30T11:24:49.014Z,68.10
2019-03-30T11:27:19.377Z,66.80
2019-03-30T11:29:49.926Z,65.90
2019-03-30T11:32:20.450Z,65.50
2019-03-30T11:34:50.860Z,65.80
2019-03-30T11:37:21.289Z,65.80
2019-03-30T11:39:51.658Z,66.30
2019-03-30T11:42:22.041Z,65.80
2019-03-30T11:44:52.510Z,65.00
2019-03-30T11:47:24.219Z,63.30
2019-03-30T11:49:54.677Z,63.30
2019-03-30T11:52:25.248Z,63.30
2019-03-30T11:54:55.780Z,62.00
2019-03-30T11:57:26.234Z,61.30
2019-03-30T11:59:56.709Z,60.50
2019-03-30T12:02:28.357Z,60.20
2019-03-30T12:04:59.206Z,60.00
2019-03-30T12:07:29.747Z,59.40
2019-03-30T12:10:00.725Z,59.20
2019-03-30T12:12:31.080Z,58.50
2019-03-30T12:15:01.507Z,57.70
2019-03-30T12:17:32.057Z,57.60
2019-03-30T12:20:02.628Z,55.30
2019-03-30T12:22:33.126Z,55.40
2019-03-30T12:25:03.677Z,54.80
2019-03-30T12:27:34.120Z,55.30
2019-03-30T12:30:04.824Z,55.00
2019-03-30T12:32:35.106Z,53.80
2019-03-30T12:35:05.930Z,53.70
2019-03-30T12:37:36.451Z,54.40
2019-03-30T12:40:07.076Z,53.90
2019-03-30T12:42:37.610Z,53.60
2019-03-30T12:45:08.860Z,53.00
2019-03-30T12:47:39.281Z,54.00
2019-03-30T12:50:09.780Z,54.20
2019-03-30T12:52:40.261Z,54.40
2019-03-30T12:55:10.667Z,54.10
2019-03-30T12:57:41.155Z,54.10
2019-03-30T13:00:11.787Z,54.60
2019-03-30T13:02:42.268Z,55.90
2019-03-30T13:05:12.777Z,55.90
2019-03-30T13:07:43.533Z,56.00
2019-03-30T13:10:14.108Z,55.30
2019-03-30T13:12:44.559Z,53.80
2019-03-30T13:15:15.042Z,52.90
2019-03-30T13:17:45.360Z,53.00
2019-03-30T13:20:15.645Z,53.20
2019-03-30T13:22:46.204Z,53.00
2019-03-30T13:25:16.714Z,52.00
2019-03-30T13:27:47.138Z,51.20
2019-03-30T13:30:17.818Z,51.40
2019-03-30T13:32:48.236Z,51.30
2019-03-30T13:35:18.661Z,51.20
2019-03-30T13:37:49.140Z,50.90
2019-03-30T13:40:19.958Z,51.20
2019-03-30T13:42:50.373Z,51.10
2019-03-30T13:45:20.750Z,51.30
2019-03-30T13:47:51.320Z,51.50
2019-03-30T13:50:21.884Z,52.50
2019-03-30T13:52:52.250Z,53.10
2019-03-30T13:55:22.852Z,52.50
2019-03-30T13:57:53.318Z,52.70
2019-03-30T14:00:23.869Z,52.90
2019-03-30T14:02:54.334Z,53.30
2019-03-30T14:05:24.850Z,53.50
2019-03-30T14:07:55.398Z,54.10
2019-03-30T14:10:25.766Z,54.10
2019-03-30T14:12:56.318Z,54.10
2019-03-30T14:15:26.768Z,54.00
2019-03-30T14:17:57.371Z,54.60
2019-03-30T14:20:27.999Z,55.00
2019-03-30T14:22:58.374Z,55.30
2019-03-30T14:25:30.439Z,55.40
2019-03-30T14:28:03.022Z,55.40
2019-03-30T14:30:33.490Z,55.80
2019-03-30T14:33:03.869Z,56.20
2019-03-30T14:35:34.417Z,56.60
2019-03-30T14:38:04.976Z,56.90
2019-03-30T14:40:35.461Z,57.10
2019-03-30T14:43:06.017Z,57.40
2019-03-30T14:49:08.828Z,57.70
2019-03-30T14:51:39.271Z,57.60
2019-03-30T14:54:09.559Z,58.10
2019-03-30T14:56:45.712Z,58.10
2019-03-30T14:59:14.432Z,58.50
2019-03-30T15:01:44.467Z,58.70
2019-03-30T15:04:15.017Z,58.90
2019-03-30T15:06:45.450Z,59.20
2019-03-30T15:09:15.825Z,59.30
2019-03-30T15:11:46.285Z,59.30
2019-03-30T15:14:16.750Z,59.30
2019-03-30T15:16:47.214Z,59.20
2019-03-30T15:19:17.654Z,58.80
2019-03-30T15:21:48.172Z,58.00
2019-03-30T15:24:18.683Z,57.40
2019-03-30T15:26:59.768Z,57.60
2019-03-30T15:29:21.192Z,58.10
2019-03-30T15:31:51.713Z,58.80
2019-03-30T15:34:22.174Z,59.50
2019-03-30T15:36:52.707Z,60.00
2019-03-30T15:39:23.181Z,60.50
2019-03-30T15:41:53.496Z,61.20
2019-03-30T15:44:23.923Z,61.80
2019-03-30T15:46:54.561Z,62.20
2019-03-30T15:49:25.165Z,62.40
2019-03-30T15:51:55.698Z,62.70
2019-03-30T15:54:26.220Z,62.90
2019-03-30T15:56:56.654Z,63.10
2019-03-30T15:59:27.386Z,63.40
2019-03-30T16:01:57.924Z,63.30
2019-03-30T16:04:28.346Z,63.50
2019-03-30T16:06:58.698Z,63.60
2019-03-30T16:09:29.069Z,63.60
2019-03-30T16:11:59.454Z,63.80
2019-03-30T16:18:05.426Z,64.10
2019-03-30T16:20:35.722Z,64.00
2019-03-30T16:23:06.369Z,64.30
2019-03-30T16:25:36.756Z,64.50
2019-03-30T16:28:07.147Z,64.90
2019-03-30T16:30:37.540Z,65.30
2019-03-30T16:33:07.937Z,65.80
2019-03-30T16:35:38.370Z,66.30
2019-03-30T16:38:08.670Z,66.70
2019-03-30T16:40:38.926Z,67.10
2019-03-30T16:43:09.235Z,67.50
2019-03-30T16:45:39.484Z,67.90
2019-03-30T16:48:09.712Z,68.20
2019-03-30T16:50:40.023Z,68.40
2019-03-30T16:53:10.435Z,68.60
2019-03-30T16:55:41.391Z,68.70
2019-03-30T16:58:11.858Z,69.00
2019-03-30T17:04:23.625Z,69.30
2019-03-30T17:06:54.045Z,69.40
2019-03-30T17:09:24.536Z,69.60
2019-03-30T17:11:55.129Z,70.00
2019-03-30T17:18:12.862Z,70.80
2019-03-30T17:20:43.202Z,70.90
2019-03-30T17:23:13.831Z,71.10
2019-03-30T17:25:44.297Z,71.00
2019-03-30T17:28:14.767Z,71.10
2019-03-30T17:30:45.347Z,71.20
2019-03-30T17:33:15.881Z,71.40
2019-03-30T17:35:46.631Z,71.40
2019-03-30T17:38:17.179Z,71.50
2019-03-30T17:40:47.871Z,71.60
2019-03-30T17:43:21.166Z,71.70
2019-03-30T17:45:51.787Z,71.80
2019-03-30T17:48:22.483Z,71.70
2019-03-30T17:50:52.950Z,71.70
2019-03-30T17:53:26.548Z,71.80
2019-03-30T17:55:56.960Z,71.60
2019-03-30T17:58:27.409Z,71.70
2019-03-30T18:00:58.032Z,71.40
2019-03-30T18:03:28.428Z,71.40
2019-03-30T18:05:58.967Z,71.10
2019-03-30T18:08:29.682Z,71.20
2019-03-30T18:11:03.892Z,71.20
2019-03-30T18:14:11.856Z,71.20
2019-03-30T18:16:44.787Z,71.50
2019-03-30T18:19:15.307Z,71.70
2019-03-30T18:22:02.230Z,73.00
2019-03-30T18:24:24.679Z,72.60
2019-03-30T18:26:57.435Z,73.10
2019-03-30T18:29:27.816Z,73.50
2019-03-30T18:31:58.916Z,73.80
2019-03-30T18:34:29.732Z,74.10
2019-03-30T18:37:00.333Z,74.40
2019-03-30T18:39:31.818Z,74.70
2019-03-30T18:42:02.322Z,75.10
2019-03-30T18:44:32.789Z,75.40
2019-03-30T18:47:04.270Z,75.80
2019-03-30T18:49:34.809Z,76.20
2019-03-30T18:52:05.342Z,76.70
2019-03-30T18:54:36.443Z,77.10
2019-03-30T18:57:06.934Z,77.50
2019-03-30T18:59:37.390Z,77.70
2019-03-30T19:02:07.840Z,78.10
2019-03-30T19:04:38.164Z,78.50
2019-03-30T19:07:08.770Z,78.70
2019-03-30T19:09:39.254Z,79.00
2019-03-30T19:12:09.722Z,79.30
2019-03-30T19:14:40.201Z,79.40
2019-03-30T19:17:10.721Z,79.50
2019-03-30T19:19:41.172Z,79.80
2019-03-30T19:22:11.736Z,80.20
2019-03-30T19:24:42.209Z,80.50
2019-03-30T19:27:12.635Z,80.50
2019-03-30T19:29:43.156Z,80.80
2019-03-30T19:32:13.482Z,80.80
2019-03-30T19:34:43.903Z,81.00
2019-03-30T19:37:14.497Z,81.20
2019-03-30T19:39:44.899Z,81.40
2019-03-30T19:42:15.930Z,82.50
2019-03-30T19:44:47.167Z,82.30
2019-03-30T19:47:17.727Z,82.60
2019-03-30T19:49:48.579Z,82.90
2019-03-30T19:52:19.137Z,83.10
2019-03-30T19:54:49.553Z,84.30
2019-03-30T19:57:19.890Z,83.80
2019-03-30T19:59:50.376Z,83.90
2019-03-30T20:02:21.024Z,83.90
2019-03-30T20:04:51.383Z,84.00
2019-03-30T20:07:21.977Z,84.00
2019-03-30T20:09:52.559Z,84.10
2019-03-30T20:12:23.127Z,84.40
2019-03-30T20:14:53.850Z,84.60
2019-03-30T20:17:24.298Z,84.90
2019-03-30T20:19:54.658Z,85.10
2019-03-30T20:22:25.039Z,85.30
2019-03-30T20:24:55.559Z,85.70
2019-03-30T20:27:26.164Z,85.70
2019-03-30T20:29:56.633Z,85.80
2019-03-30T20:32:27.100Z,86.10
2019-03-30T20:34:57.760Z,86.20
2019-03-30T20:37:28.358Z,86.60
2019-03-30T20:39:59.949Z,87.70
2019-03-30T20:42:30.510Z,87.30
2019-03-30T20:45:00.976Z,87.60
2019-03-30T20:47:31.252Z,87.90
2019-03-30T20:50:01.746Z,88.40
2019-03-30T20:52:32.776Z,88.60
2019-03-30T20:55:03.682Z,88.80
2019-03-30T20:57:34.184Z,88.80
2019-03-30T21:00:05.903Z,89.00
2019-03-30T21:02:36.226Z,89.40
2019-03-30T21:05:08.376Z,89.50
2019-03-30T21:07:41.764Z,89.40
2019-03-30T21:10:14.396Z,89.60
2019-03-30T21:12:44.122Z,90.00
2019-03-30T21:15:14.723Z,90.10
2019-03-30T21:17:45.147Z,90.20
2019-03-30T21:20:17.426Z,90.30
2019-03-30T21:22:47.972Z,90.40
2019-03-30T21:25:18.395Z,90.40
2019-03-30T21:27:48.923Z,90.50
2019-03-30T21:30:19.562Z,90.60
2019-03-30T21:32:50.044Z,90.70
2019-03-30T21:35:29.380Z,90.80
2019-03-30T21:37:59.862Z,90.90
2019-03-30T21:40:39.467Z,91.00
2019-03-30T21:43:09.963Z,91.10
2019-03-30T21:45:40.250Z,91.20
2019-03-30T21:48:10.679Z,91.40
2019-03-30T21:50:41.321Z,91.50
2019-03-30T21:53:11.921Z,91.60
2019-03-30T21:55:42.445Z,91.70
2019-03-30T21:58:13.335Z,91.90
2019-03-30T22:00:43.787Z,92.00
2019-03-30T22:03:14.353Z,92.20
2019-03-30T22:05:44.784Z,92.30
2019-03-30T22:08:17.188Z,92.40
2019-03-30T22:10:47.390Z,92.50
2019-03-30T22:13:21.261Z,92.70
2019-03-30T22:19:22.425Z,92.80
2019-03-30T22:21:52.946Z,92.70
2019-03-30T22:24:23.521Z,92.70
2019-03-30T22:26:54.103Z,92.80
2019-03-30T22:29:24.659Z,92.90
2019-03-30T22:31:55.028Z,92.80
2019-03-30T22:34:25.671Z,92.70
2019-03-30T22:36:56.194Z,92.70
2019-03-30T22:39:26.764Z,92.80
2019-03-30T22:41:57.298Z,93.00
2019-03-30T22:44:27.816Z,93.10
2019-03-30T22:46:58.314Z,93.20
2019-03-30T22:49:28.845Z,93.40
2019-03-30T22:52:00.263Z,93.40
2019-03-30T22:54:30.683Z,93.50
2019-03-30T22:57:01.511Z,93.60
2019-03-30T22:59:32.043Z,93.50
2019-03-30T23:02:02.594Z,93.40
2019-03-30T23:04:33.045Z,93.40
2019-03-30T23:07:03.595Z,93.20
2019-03-30T23:09:34.119Z,92.90
2019-03-30T23:12:04.585Z,92.90
2019-03-30T23:14:35.095Z,92.70
2019-03-30T23:17:06.143Z,92.70
2019-03-30T23:19:36.637Z,92.70
2019-03-30T23:22:07.252Z,92.90
2019-03-30T23:24:37.806Z,93.00
2019-03-30T23:27:08.297Z,93.20
2019-03-30T23:29:38.864Z,93.30
2019-03-30T23:32:09.359Z,93.40
2019-03-30T23:34:40.505Z,93.60
2019-03-30T23:37:11.046Z,93.70
2019-03-30T23:39:41.503Z,93.70
2019-03-30T23:42:11.848Z,93.90
2019-03-30T23:44:42.239Z,93.90
2019-03-30T23:47:12.781Z,94.00
2019-03-30T23:49:43.208Z,94.20
2019-03-30T23:52:13.785Z,94.20
2019-03-30T23:54:44.293Z,94.30
2019-03-30T23:57:14.837Z,94.40
2019-03-30T23:59:47.054Z,94.50
